^^
Meteo Knjazevac Station Historical Data
Daily Summary for August 31, 2021 Units:  Both    English   Metric
Daily Weekly Monthly Yearly Custom
  High: Low: Average:
Temperature: 60.4 °F /  15.8 °C 35.8 °F /  2.1 °C 45.2 °F /  7.3 °C
Dew Point: 50.7 °F /  10.4 °C 35.3 °F /  1.8 °C 42.2 °F /  5.7 °C
Humidity: 99% 66% 90%
Wind Speed: 6mph /  9.7km/h - 2.3mph /  3.7km/h
Wind Gust: 12mph /  19.3km/h - -
Wind- - South
Pressure: 30.31 in /  1026.3 hPa 30.14 in /  1020.5 hPa -
Precipitation: 0.00 in /  0 mm    
Historical Graphs
 
 
Tabular Data for August 31, 2021
Time Temperature Dew Point Pressure Wind Wind Speed Wind Gust Humidity Rainfall Rate (Hourly) solar Conditions
00:00 35.8 °F /  2.1 °C 35.3 °F /  1.8 °C 30.31in /  1026.3hPa WNW 2mph /  3.2km/h 6mph /  9.7km/h 98% 0.00in /  0mm 0 W/m2
00:10 36.3 °F /  2.4 °C 36 °F /  2.2 °C 30.31in /  1026.3hPa WNW 2mph /  3.2km/h 4mph /  6.4km/h 99% 0.00in /  0mm 0 W/m2
00:20 36.7 °F /  2.6 °C 36.4 °F /  2.4 °C 30.31in /  1026.3hPa West 2mph /  3.2km/h 4mph /  6.4km/h 99% 0.00in /  0mm 0 W/m2
00:30 37 °F /  2.8 °C 36.8 °F /  2.7 °C 30.30in /  1026hPa Calm   2mph /  3.2km/h 99% 0.00in /  0mm 0 W/m2
00:40 37.2 °F /  2.9 °C 37 °F /  2.8 °C 30.30in /  1026hPa Calm   1mph /  1.6km/h 99% 0.00in /  0mm 0 W/m2
00:50 37.4 °F /  3 °C 37.1 °F /  2.8 °C 30.30in /  1026hPa West 1mph /  1.6km/h 2mph /  3.2km/h 99% 0.00in /  0mm 0 W/m2
01:00 37.6 °F /  3.1 °C 37.3 °F /  2.9 °C 30.30in /  1026hPa Calm   2mph /  3.2km/h 99% 0.00in /  0mm 0 W/m2
01:10 37.8 °F /  3.2 °C 37.5 °F /  3.1 °C 30.30in /  1026hPa WNW 1mph /  1.6km/h 2mph /  3.2km/h 99% 0.00in /  0mm 0 W/m2
01:20 37.9 °F /  3.3 °C 37.7 °F /  3.2 °C 30.30in /  1026hPa Calm   2mph /  3.2km/h 99% 0.00in /  0mm 0 W/m2
01:30 38.1 °F /  3.4 °C 37.9 °F /  3.3 °C 30.30in /  1026hPa NNW 1mph /  1.6km/h 2mph /  3.2km/h 99% 0.00in /  0mm 0 W/m2
01:40 38.3 °F /  3.5 °C 38 °F /  3.3 °C 30.30in /  1026hPa Calm   2mph /  3.2km/h 99% 0.00in /  0mm 0 W/m2
01:50 38.5 °F /  3.6 °C 38.2 °F /  3.4 °C 30.30in /  1026hPa Calm   2mph /  3.2km/h 99% 0.00in /  0mm 0 W/m2
02:00 38.8 °F /  3.8 °C 38.6 °F /  3.7 °C 30.30in /  1026hPa Calm   2mph /  3.2km/h 99% 0.00in /  0mm 0 W/m2
02:10 39.2 °F /  4 °C 38.9 °F /  3.8 °C 30.30in /  1026hPa North 1mph /  1.6km/h 2mph /  3.2km/h 99% 0.00in /  0mm 0 W/m2
02:20 39.2 °F /  4 °C 39 °F /  3.9 °C 30.30in /  1026hPa Calm   2mph /  3.2km/h 99% 0.00in /  0mm 0 W/m2
02:30 39.6 °F /  4.2 °C 39.3 °F /  4.1 °C 30.29in /  1025.6hPa Calm   1mph /  1.6km/h 99% 0.00in /  0mm 0 W/m2
02:40 39.6 °F /  4.2 °C 39.3 °F /  4.1 °C 30.29in /  1025.6hPa Calm   2mph /  3.2km/h 99% 0.00in /  0mm 0 W/m2
02:50 39.7 °F /  4.3 °C 39.5 °F /  4.2 °C 30.29in /  1025.6hPa Calm   2mph /  3.2km/h 99% 0.00in /  0mm 0 W/m2
02:00 39.9 °F /  4.4 °C 39.7 °F /  4.3 °C 30.29in /  1025.6hPa Calm   1mph /  1.6km/h 99% 0.00in /  0mm 0 W/m2
02:10 40.1 °F /  4.5 °C 39.8 °F /  4.3 °C 30.29in /  1025.6hPa Calm   2mph /  3.2km/h 99% 0.00in /  0mm 0 W/m2
02:20 40.1 °F /  4.5 °C 39.8 °F /  4.3 °C 30.29in /  1025.6hPa North 1mph /  1.6km/h 2mph /  3.2km/h 99% 0.00in /  0mm 0 W/m2
02:30 40.3 °F /  4.6 °C 40.1 °F /  4.5 °C 30.28in /  1025.3hPa NNE 2mph /  3.2km/h 3mph /  4.8km/h 99% 0.00in /  0mm 0 W/m2
02:40 40.5 °F /  4.7 °C 40.2 °F /  4.6 °C 30.28in /  1025.3hPa ENE 2mph /  3.2km/h 6mph /  9.7km/h 99% 0.00in /  0mm 0 W/m2
02:50 40.6 °F /  4.8 °C 40.4 °F /  4.7 °C 30.28in /  1025.3hPa East 3mph /  4.8km/h 5mph /  8km/h 99% 0.00in /  0mm 0 W/m2
03:00 40.7 °F /  4.8 °C 40.4 °F /  4.7 °C 30.28in /  1025.3hPa East 3mph /  4.8km/h 5mph /  8km/h 99% 0.00in /  0mm 0 W/m2
03:10 40.8 °F /  4.9 °C 40.6 °F /  4.8 °C 30.27in /  1024.9hPa East 2mph /  3.2km/h 5mph /  8km/h 99% 0.00in /  0mm 0 W/m2
03:20 40.8 °F /  4.9 °C 40.6 °F /  4.8 °C 30.27in /  1024.9hPa East 5mph /  8km/h 7mph /  11.3km/h 99% 0.00in /  0mm 0 W/m2
03:30 40.8 °F /  4.9 °C 40.6 °F /  4.8 °C 30.27in /  1024.9hPa ENE 2mph /  3.2km/h 5mph /  8km/h 99% 0.00in /  0mm 0 W/m2
03:40 40.9 °F /  4.9 °C 40.6 °F /  4.8 °C 30.27in /  1024.9hPa East 2mph /  3.2km/h 5mph /  8km/h 99% 0.00in /  0mm 0 W/m2
03:50 41 °F /  5 °C 40.7 °F /  4.8 °C 30.27in /  1024.9hPa ENE 3mph /  4.8km/h 6mph /  9.7km/h 99% 0.00in /  0mm 0 W/m2
04:00 41 °F /  5 °C 40.7 °F /  4.8 °C 30.27in /  1024.9hPa NE 2mph /  3.2km/h 5mph /  8km/h 99% 0.00in /  0mm 0 W/m2
04:10 41 °F /  5 °C 40.7 °F /  4.8 °C 30.27in /  1024.9hPa East 5mph /  8km/h 8mph /  12.9km/h 99% 0.00in /  0mm 0 W/m2
04:20 40.8 °F /  4.9 °C 40.6 °F /  4.8 °C 30.27in /  1024.9hPa East 3mph /  4.8km/h 7mph /  11.3km/h 99% 0.00in /  0mm 0 W/m2
04:30 40.8 °F /  4.9 °C 40.5 °F /  4.7 °C 30.27in /  1024.9hPa East 6mph /  9.7km/h 8mph /  12.9km/h 99% 0.00in /  0mm 0 W/m2
04:40 40.6 °F /  4.8 °C 40.3 °F /  4.6 °C 30.27in /  1024.9hPa East 5mph /  8km/h 9mph /  14.5km/h 99% 0.00in /  0mm 0 W/m2
04:50 40.3 °F /  4.6 °C 40 °F /  4.4 °C 30.27in /  1024.9hPa East 3mph /  4.8km/h 7mph /  11.3km/h 99% 0.00in /  0mm 0 W/m2
05:00 40.1 °F /  4.5 °C 39.8 °F /  4.3 °C 30.27in /  1024.9hPa East 5mph /  8km/h 7mph /  11.3km/h 99% 0.00in /  0mm 0 W/m2
05:10 40.1 °F /  4.5 °C 39.8 °F /  4.3 °C 30.27in /  1024.9hPa East 5mph /  8km/h 10mph /  16.1km/h 99% 0.00in /  0mm 0 W/m2
05:20 39.9 °F /  4.4 °C 39.7 °F /  4.3 °C 30.26in /  1024.6hPa ENE 3mph /  4.8km/h 6mph /  9.7km/h 99% 0.00in /  0mm 0 W/m2
05:30 39.7 °F /  4.3 °C 39.5 °F /  4.2 °C 30.26in /  1024.6hPa ENE 2mph /  3.2km/h 9mph /  14.5km/h 99% 0.00in /  0mm 0 W/m2
05:40 39.6 °F /  4.2 °C 39.3 °F /  4.1 °C 30.26in /  1024.6hPa ENE 5mph /  8km/h 8mph /  12.9km/h 99% 0.00in /  0mm 0 W/m2
05:50 39.6 °F /  4.2 °C 39.3 °F /  4.1 °C 30.26in /  1024.6hPa ENE 3mph /  4.8km/h 7mph /  11.3km/h 99% 0.00in /  0mm 0 W/m2
06:00 39.4 °F /  4.1 °C 39.1 °F /  3.9 °C 30.26in /  1024.6hPa ENE 3mph /  4.8km/h 6mph /  9.7km/h 99% 0.00in /  0mm 0 W/m2
06:10 39.4 °F /  4.1 °C 39.1 °F /  3.9 °C 30.26in /  1024.6hPa ENE 5mph /  8km/h 7mph /  11.3km/h 99% 0.00in /  0mm 2 W/m2
06:20 39.2 °F /  4 °C 38.9 °F /  3.8 °C 30.26in /  1024.6hPa East 5mph /  8km/h 8mph /  12.9km/h 99% 0.00in /  0mm 4 W/m2
06:30 39.1 °F /  3.9 °C 38.8 °F /  3.8 °C 30.26in /  1024.6hPa East 6mph /  9.7km/h 9mph /  14.5km/h 99% 0.00in /  0mm 9 W/m2
06:40 39 °F /  3.9 °C 38.8 °F /  3.8 °C 30.26in /  1024.6hPa East 3mph /  4.8km/h 9mph /  14.5km/h 99% 0.00in /  0mm 13 W/m2
06:50 39 °F /  3.9 °C 38.8 °F /  3.8 °C 30.26in /  1024.6hPa East 5mph /  8km/h 8mph /  12.9km/h 99% 0.00in /  0mm 18 W/m2
07:00 39 °F /  3.9 °C 38.8 °F /  3.8 °C 30.26in /  1024.6hPa East 3mph /  4.8km/h 8mph /  12.9km/h 99% 0.00in /  0mm 25 W/m2
07:10 38.8 °F /  3.8 °C 38.6 °F /  3.7 °C 30.26in /  1024.6hPa East 6mph /  9.7km/h 9mph /  14.5km/h 99% 0.00in /  0mm 31 W/m2
07:20 38.8 °F /  3.8 °C 38.6 °F /  3.7 °C 30.26in /  1024.6hPa ENE 5mph /  8km/h 9mph /  14.5km/h 99% 0.00in /  0mm 40 W/m2
07:30 38.8 °F /  3.8 °C 38.6 °F /  3.7 °C 30.27in /  1024.9hPa ENE 3mph /  4.8km/h 8mph /  12.9km/h 99% 0.00in /  0mm 47 W/m2
07:40 39 °F /  3.9 °C 38.8 °F /  3.8 °C 30.27in /  1024.9hPa East 3mph /  4.8km/h 8mph /  12.9km/h 99% 0.00in /  0mm 50 W/m2
07:50 39.2 °F /  4 °C 38.9 °F /  3.8 °C 30.27in /  1024.9hPa ENE 2mph /  3.2km/h 8mph /  12.9km/h 99% 0.00in /  0mm 71 W/m2
08:00 39.4 °F /  4.1 °C 39.1 °F /  3.9 °C 30.27in /  1024.9hPa NE 3mph /  4.8km/h 6mph /  9.7km/h 99% 0.00in /  0mm 78 W/m2
08:10 39.7 °F /  4.3 °C 39.5 °F /  4.2 °C 30.27in /  1024.9hPa ENE 2mph /  3.2km/h 7mph /  11.3km/h 99% 0.00in /  0mm 85 W/m2
08:20 40 °F /  4.4 °C 39.7 °F /  4.3 °C 30.27in /  1024.9hPa ENE 3mph /  4.8km/h 6mph /  9.7km/h 99% 0.00in /  0mm 97 W/m2
08:30 40.3 °F /  4.6 °C 40.1 °F /  4.5 °C 30.27in /  1024.9hPa ENE 3mph /  4.8km/h 6mph /  9.7km/h 99% 0.00in /  0mm 111 W/m2
08:40 40.6 °F /  4.8 °C 40.4 °F /  4.7 °C 30.27in /  1024.9hPa East 2mph /  3.2km/h 6mph /  9.7km/h 99% 0.00in /  0mm 120 W/m2
08:50 41.1 °F /  5.1 °C 40.8 °F /  4.9 °C 30.26in /  1024.6hPa NE 2mph /  3.2km/h 5mph /  8km/h 99% 0.00in /  0mm 140 W/m2
09:00 41.5 °F /  5.3 °C 41.3 °F /  5.2 °C 30.26in /  1024.6hPa NNE 1mph /  1.6km/h 4mph /  6.4km/h 99% 0.00in /  0mm 131 W/m2
09:10 41.9 °F /  5.5 °C 41.6 °F /  5.3 °C 30.26in /  1024.6hPa NNE 1mph /  1.6km/h 4mph /  6.4km/h 99% 0.00in /  0mm 140 W/m2
09:20 42.3 °F /  5.7 °C 42 °F /  5.6 °C 30.26in /  1024.6hPa Calm   3mph /  4.8km/h 99% 0.00in /  0mm 151 W/m2
09:30 42.8 °F /  6 °C 42.5 °F /  5.8 °C 30.26in /  1024.6hPa Calm   2mph /  3.2km/h 99% 0.00in /  0mm 158 W/m2
09:40 43.2 °F /  6.2 °C 42.9 °F /  6.1 °C 30.25in /  1024.3hPa Calm   2mph /  3.2km/h 99% 0.00in /  0mm 161 W/m2
09:50 43.8 °F /  6.6 °C 43.5 °F /  6.4 °C 30.25in /  1024.3hPa West 1mph /  1.6km/h 2mph /  3.2km/h 99% 0.00in /  0mm 164 W/m2
10:10 44.7 °F /  7.1 °C 44.4 °F /  6.9 °C 30.25in /  1024.3hPa WNW 1mph /  1.6km/h 3mph /  4.8km/h 99% 0.00in /  0mm 207 W/m2
10:20 45.1 °F /  7.3 °C 44.9 °F /  7.2 °C 30.25in /  1024.3hPa WNW 1mph /  1.6km/h 2mph /  3.2km/h 99% 0.00in /  0mm 183 W/m2
10:30 45.6 °F /  7.6 °C 45.3 °F /  7.4 °C 30.25in /  1024.3hPa SW 2mph /  3.2km/h 4mph /  6.4km/h 99% 0.00in /  0mm 224 W/m2
10:40 46.1 °F /  7.8 °C 45.6 °F /  7.6 °C 30.24in /  1023.9hPa WSW 1mph /  1.6km/h 4mph /  6.4km/h 98% 0.00in /  0mm 245 W/m2
10:50 46.8 °F /  8.2 °C 46.2 °F /  7.9 °C 30.24in /  1023.9hPa Calm   3mph /  4.8km/h 98% 0.00in /  0mm 307 W/m2
11:00 47.7 °F /  8.7 °C 46.6 °F /  8.1 °C 30.23in /  1023.6hPa Calm   4mph /  6.4km/h 96% 0.00in /  0mm 271 W/m2
11:10 48.6 °F /  9.2 °C 47.2 °F /  8.4 °C 30.22in /  1023.2hPa South 2mph /  3.2km/h 3mph /  4.8km/h 95% 0.00in /  0mm 496 W/m2
11:20 49.7 °F /  9.8 °C 48.1 °F /  8.9 °C 30.22in /  1023.2hPa SSW 1mph /  1.6km/h 4mph /  6.4km/h 94% 0.00in /  0mm 495 W/m2
11:30 51 °F /  10.6 °C 48.4 °F /  9.1 °C 30.21in /  1022.9hPa WSW 1mph /  1.6km/h 4mph /  6.4km/h 91% 0.00in /  0mm 493 W/m2
11:40 52.1 °F /  11.2 °C 48.9 °F /  9.4 °C 30.21in /  1022.9hPa SW 2mph /  3.2km/h 5mph /  8km/h 89% 0.00in /  0mm 490 W/m2
11:50 53.1 °F /  11.7 °C 49 °F /  9.4 °C 30.21in /  1022.9hPa SSW 1mph /  1.6km/h 5mph /  8km/h 86% 0.00in /  0mm 485 W/m2
12:00 54.1 °F /  12.3 °C 49.7 °F /  9.8 °C 30.20in /  1022.6hPa South 2mph /  3.2km/h 5mph /  8km/h 85% 0.00in /  0mm 478 W/m2
12:10 55.5 °F /  13.1 °C 50.1 °F /  10.1 °C 30.19in /  1022.2hPa WSW 3mph /  4.8km/h 8mph /  12.9km/h 82% 0.00in /  0mm 470 W/m2
12:20 56.7 °F /  13.7 °C 50.3 °F /  10.2 °C 30.19in /  1022.2hPa North 1mph /  1.6km/h 7mph /  11.3km/h 79% 0.00in /  0mm 460 W/m2
12:30 57.8 °F /  14.3 °C 50.7 °F /  10.4 °C 30.18in /  1021.9hPa NNE 6mph /  9.7km/h 9mph /  14.5km/h 77% 0.00in /  0mm 449 W/m2
12:40 58.6 °F /  14.8 °C 50.4 °F /  10.2 °C 30.18in /  1021.9hPa North 3mph /  4.8km/h 7mph /  11.3km/h 74% 0.00in /  0mm 437 W/m2
12:50 59.3 °F /  15.2 °C 49.5 °F /  9.7 °C 30.17in /  1021.6hPa NNE 6mph /  9.7km/h 12mph /  19.3km/h 70% 0.00in /  0mm 423 W/m2
13:00 59.9 °F /  15.5 °C 49.7 °F /  9.8 °C 30.17in /  1021.6hPa North 5mph /  8km/h 9mph /  14.5km/h 69% 0.00in /  0mm 407 W/m2
13:10 60.3 °F /  15.7 °C 49.7 °F /  9.8 °C 30.16in /  1021.2hPa North 3mph /  4.8km/h 9mph /  14.5km/h 68% 0.00in /  0mm 391 W/m2
13:20 60.4 °F /  15.8 °C 49.8 °F /  9.9 °C 30.16in /  1021.2hPa North 5mph /  8km/h 8mph /  12.9km/h 68% 0.00in /  0mm 373 W/m2
13:30 60.3 °F /  15.7 °C 49.3 °F /  9.6 °C 30.16in /  1021.2hPa North 3mph /  4.8km/h 9mph /  14.5km/h 67% 0.00in /  0mm 355 W/m2
13:40 60.1 °F /  15.6 °C 49.1 °F /  9.5 °C 30.15in /  1020.9hPa North 3mph /  4.8km/h 9mph /  14.5km/h 67% 0.00in /  0mm 335 W/m2
13:50 60.1 °F /  15.6 °C 49.1 °F /  9.5 °C 30.15in /  1020.9hPa North 3mph /  4.8km/h 9mph /  14.5km/h 67% 0.00in /  0mm 314 W/m2
14:00 60.1 °F /  15.6 °C 48.7 °F /  9.3 °C 30.15in /  1020.9hPa North 6mph /  9.7km/h 9mph /  14.5km/h 66% 0.00in /  0mm 292 W/m2
14:10 59.7 °F /  15.4 °C 48.7 °F /  9.3 °C 30.15in /  1020.9hPa North 5mph /  8km/h 11mph /  17.7km/h 67% 0.00in /  0mm 270 W/m2
14:20 59.5 °F /  15.3 °C 48.6 °F /  9.2 °C 30.15in /  1020.9hPa North 5mph /  8km/h 11mph /  17.7km/h 67% 0.00in /  0mm 247 W/m2
14:30 59 °F /  15 °C 48.1 °F /  8.9 °C 30.15in /  1020.9hPa North 6mph /  9.7km/h 11mph /  17.7km/h 67% 0.00in /  0mm 223 W/m2
14:40 58.5 °F /  14.7 °C 47.5 °F /  8.6 °C 30.14in /  1020.5hPa North 5mph /  8km/h 10mph /  16.1km/h 67% 0.00in /  0mm 199 W/m2
14:50 58.3 °F /  14.6 °C 47.8 °F /  8.8 °C 30.14in /  1020.5hPa North 5mph /  8km/h 10mph /  16.1km/h 68% 0.00in /  0mm 174 W/m2
15:00 57.7 °F /  14.3 °C 47.6 °F /  8.7 °C 30.14in /  1020.5hPa North 3mph /  4.8km/h 10mph /  16.1km/h 69% 0.00in /  0mm 147 W/m2
15:10 57.3 °F /  14.1 °C 47.2 °F /  8.4 °C 30.14in /  1020.5hPa North 3mph /  4.8km/h 7mph /  11.3km/h 69% 0.00in /  0mm 123 W/m2
15:20 56.8 °F /  13.8 °C 46.7 °F /  8.2 °C 30.14in /  1020.5hPa North 2mph /  3.2km/h 8mph /  12.9km/h 69% 0.00in /  0mm 99 W/m2
15:30 56.2 °F /  13.4 °C 46.2 °F /  7.9 °C 30.14in /  1020.5hPa North 5mph /  8km/h 8mph /  12.9km/h 69% 0.00in /  0mm 79 W/m2
15:40 55.8 °F /  13.2 °C 46.1 °F /  7.8 °C 30.14in /  1020.5hPa NNW 5mph /  8km/h 8mph /  12.9km/h 70% 0.00in /  0mm 58 W/m2
15:50 55 °F /  12.8 °C 46.2 °F /  7.9 °C 30.14in /  1020.5hPa NNW 5mph /  8km/h 9mph /  14.5km/h 72% 0.00in /  0mm 38 W/m2
16:00 54.4 °F /  12.4 °C 45.9 °F /  7.7 °C 30.14in /  1020.5hPa North 5mph /  8km/h 8mph /  12.9km/h 73% 0.00in /  0mm 19 W/m2
16:10 53.8 °F /  12.1 °C 45.3 °F /  7.4 °C 30.14in /  1020.5hPa NNW 5mph /  8km/h 8mph /  12.9km/h 73% 0.00in /  0mm 4 W/m2
16:20 53.2 °F /  11.8 °C 45.1 °F /  7.3 °C 30.14in /  1020.5hPa North 2mph /  3.2km/h 9mph /  14.5km/h 74% 0.00in /  0mm 7 W/m2
16:30 52.5 °F /  11.4 °C 44.8 °F /  7.1 °C 30.14in /  1020.5hPa NNW 5mph /  8km/h 10mph /  16.1km/h 75% 0.00in /  0mm 0 W/m2
16:40 52 °F /  11.1 °C 45 °F /  7.2 °C 30.14in /  1020.5hPa NNW 3mph /  4.8km/h 8mph /  12.9km/h 77% 0.00in /  0mm 0 W/m2
16:50 51.5 °F /  10.8 °C 44.9 °F /  7.2 °C 30.14in /  1020.5hPa NNW 3mph /  4.8km/h 7mph /  11.3km/h 78% 0.00in /  0mm 0 W/m2
17:00 51.1 °F /  10.6 °C 44.8 °F /  7.1 °C 30.15in /  1020.9hPa NNW 1mph /  1.6km/h 7mph /  11.3km/h 79% 0.00in /  0mm 0 W/m2
17:10 50.6 °F /  10.3 °C 44.4 °F /  6.9 °C 30.15in /  1020.9hPa Calm   5mph /  8km/h 79% 0.00in /  0mm 0 W/m2
17:20 50.1 °F /  10.1 °C 43.8 °F /  6.6 °C 30.15in /  1020.9hPa Calm   3mph /  4.8km/h 79% 0.00in /  0mm 0 W/m2
17:30 49.4 °F /  9.7 °C 43.5 °F /  6.4 °C 30.15in /  1020.9hPa ESE 1mph /  1.6km/h 2mph /  3.2km/h 80% 0.00in /  0mm 0 W/m2
17:40 48.7 °F /  9.3 °C 42.8 °F /  6 °C 30.15in /  1020.9hPa SE 1mph /  1.6km/h 3mph /  4.8km/h 80% 0.00in /  0mm 0 W/m2
17:50 47.8 °F /  8.8 °C 42.3 °F /  5.7 °C 30.15in /  1020.9hPa SSE 1mph /  1.6km/h 4mph /  6.4km/h 81% 0.00in /  0mm 0 W/m2
18:00 47.2 °F /  8.4 °C 42.3 °F /  5.7 °C 30.15in /  1020.9hPa South 1mph /  1.6km/h 3mph /  4.8km/h 83% 0.00in /  0mm 0 W/m2
18:10 46.6 °F /  8.1 °C 42 °F /  5.6 °C 30.15in /  1020.9hPa NNW 1mph /  1.6km/h 3mph /  4.8km/h 84% 0.00in /  0mm 0 W/m2
18:20 46 °F /  7.8 °C 41.5 °F /  5.3 °C 30.15in /  1020.9hPa WSW 1mph /  1.6km/h 3mph /  4.8km/h 84% 0.00in /  0mm 0 W/m2
18:30 45.4 °F /  7.4 °C 41.2 °F /  5.1 °C 30.15in /  1020.9hPa West 1mph /  1.6km/h 2mph /  3.2km/h 85% 0.00in /  0mm 0 W/m2
18:40 44.9 °F /  7.2 °C 40.6 °F /  4.8 °C 30.15in /  1020.9hPa WSW 1mph /  1.6km/h 2mph /  3.2km/h 85% 0.00in /  0mm 0 W/m2
18:50 44.2 °F /  6.8 °C 40.3 °F /  4.6 °C 30.15in /  1020.9hPa WSW 2mph /  3.2km/h 3mph /  4.8km/h 86% 0.00in /  0mm 0 W/m2
19:00 43.7 °F /  6.5 °C 40.4 °F /  4.7 °C 30.15in /  1020.9hPa West 2mph /  3.2km/h 3mph /  4.8km/h 88% 0.00in /  0mm 0 W/m2
19:10 43.3 °F /  6.3 °C 40 °F /  4.4 °C 30.15in /  1020.9hPa WSW 2mph /  3.2km/h 4mph /  6.4km/h 88% 0.00in /  0mm 0 W/m2
19:20 42.8 °F /  6 °C 39.8 °F /  4.3 °C 30.15in /  1020.9hPa West 2mph /  3.2km/h 4mph /  6.4km/h 89% 0.00in /  0mm 0 W/m2
19:30 42.4 °F /  5.8 °C 39.4 °F /  4.1 °C 30.15in /  1020.9hPa WSW 1mph /  1.6km/h 3mph /  4.8km/h 89% 0.00in /  0mm 0 W/m2
19:40 41.9 °F /  5.5 °C 39.2 °F /  4 °C 30.15in /  1020.9hPa WSW 2mph /  3.2km/h 3mph /  4.8km/h 90% 0.00in /  0mm 0 W/m2
19:50 41.5 °F /  5.3 °C 38.8 °F /  3.8 °C 30.15in /  1020.9hPa Calm   3mph /  4.8km/h 90% 0.00in /  0mm 0 W/m2
20:00 41.2 °F /  5.1 °C 38.8 °F /  3.8 °C 30.15in /  1020.9hPa WNW 2mph /  3.2km/h 3mph /  4.8km/h 91% 0.00in /  0mm 0 W/m2
20:10 40.9 °F /  4.9 °C 38.2 °F /  3.4 °C 30.15in /  1020.9hPa WNW 1mph /  1.6km/h 4mph /  6.4km/h 90% 0.00in /  0mm 0 W/m2
20:20 40.3 °F /  4.6 °C 37.6 °F /  3.1 °C 30.15in /  1020.9hPa WNW 2mph /  3.2km/h 3mph /  4.8km/h 90% 0.00in /  0mm 0 W/m2
20:30 39.9 °F /  4.4 °C 37.5 °F /  3.1 °C 30.15in /  1020.9hPa Calm   2mph /  3.2km/h 91% 0.00in /  0mm 0 W/m2
20:40 39.6 °F /  4.2 °C 36.9 °F /  2.7 °C 30.15in /  1020.9hPa Calm   2mph /  3.2km/h 90% 0.00in /  0mm 0 W/m2
20:50 39.1 °F /  3.9 °C 36.7 °F /  2.6 °C 30.15in /  1020.9hPa Calm   2mph /  3.2km/h 91% 0.00in /  0mm 0 W/m2
21:00 38.8 °F /  3.8 °C 36.4 °F /  2.4 °C 30.15in /  1020.9hPa Calm   2mph /  3.2km/h 91% 0.00in /  0mm 0 W/m2
Knjazevac, Serbia
Compliments of Weather Underground - 2 mb